Time;durP1;ratioP1;P1;durP2;ratioP2;P2;SDS_P1;SDS_P2;PMS_P1;PMS_P2;Temp;Humidity;BMP_temperature;BMP_pressure;BME280_temperature;BME280_humidity;BME280_pressure;Samples;Min_cycle;Max_cycle;Signal;HPM_P1;HPM_P2
2022/10/09 00:00:45;;;;;;;3.47;2.70;;;;;;;;;;5033779;28;20201;-77
2022/10/09 00:03:12;;;;;;;3.97;2.47;;;;;;;;;;5034440;28;20185;-77
2022/10/09 00:05:38;;;;;;;4.53;2.67;;;;;;;;;;5034257;28;20259;-77
2022/10/09 00:08:04;;;;;;;3.07;2.40;;;;;;;;;;5034108;28;20672;-77
2022/10/09 00:10:30;;;;;;;4.43;2.40;;;;;;;;;;5034304;28;20288;-77
2022/10/09 00:12:56;;;;;;;3.23;2.27;;;;;;;;;;5034201;28;20178;-77
2022/10/09 00:15:22;;;;;;;4.73;2.60;;;;;;;;;;5033925;28;20212;-77
2022/10/09 00:17:49;;;;;;;3.73;2.40;;;;;;;;;;5033896;28;20177;-77
2022/10/09 00:20:15;;;;;;;4.33;2.60;;;;;;;;;;5033972;28;20610;-77
2022/10/09 00:22:42;;;;;;;3.20;2.57;;;;;;;;;;5033810;28;20288;-77
2022/10/09 00:25:08;;;;;;;4.90;2.33;;;;;;;;;;5032782;28;20236;-77
2022/10/09 00:27:34;;;;;;;3.37;2.50;;;;;;;;;;5032625;28;20211;-77
2022/10/09 00:30:00;;;;;;;3.30;2.23;;;;;;;;;;5016193;28;20197;-77
2022/10/09 00:32:26;;;;;;;6.23;2.93;;;;;;;;;;5016048;28;20551;-77
2022/10/09 00:34:52;;;;;;;3.27;2.37;;;;;;;;;;5016186;28;20185;-77
2022/10/09 00:37:18;;;;;;;4.87;2.53;;;;;;;;;;5016059;28;20181;-77
2022/10/09 00:39:44;;;;;;;4.37;2.70;;;;;;;;;;5016167;28;20197;-77
2022/10/09 00:42:13;;;;;;;5.20;2.40;;;;;;;;;;5015791;28;20178;-77
2022/10/09 00:44:48;;;;;;;2.50;2.30;;;;;;;;;;5032297;28;20175;-77
2022/10/09 00:47:23;;;;;;;3.77;2.50;;;;;;;;;;5032406;28;20215;-77
2022/10/09 00:49:49;;;;;;;3.93;2.70;;;;;;;;;;5032059;28;20224;-77
2022/10/09 00:52:16;;;;;;;2.97;2.70;;;;;;;;;;5032318;28;20179;-77
2022/10/09 00:54:42;;;;;;;4.80;2.80;;;;;;;;;;5032385;28;20225;-77
2022/10/09 00:57:08;;;;;;;4.00;3.10;;;;;;;;;;5032369;28;20276;-77
2022/10/09 00:59:35;;;;;;;3.27;2.70;;;;;;;;;;5032058;28;20547;-77
2022/10/09 01:02:01;;;;;;;3.33;2.80;;;;;;;;;;5015385;28;20630;-77
2022/10/09 01:04:27;;;;;;;4.90;2.87;;;;;;;;;;5015596;28;20278;-77
2022/10/09 01:06:52;;;;;;;5.87;2.77;;;;;;;;;;5033427;28;20175;-77
2022/10/09 01:09:21;;;;;;;4.13;2.60;;;;;;;;;;5032014;28;20678;-77
2022/10/09 01:11:58;;;;;;;3.47;2.50;;;;;;;;;;5031662;28;20179;-77
2022/10/09 01:14:28;;;;;;;3.87;2.47;;;;;;;;;;5031356;28;20182;-77
2022/10/09 01:17:15;;;;;;;3.87;2.30;;;;;;;;;;5015309;28;20540;-77
2022/10/09 01:20:00;;;;;;;4.30;2.50;;;;;;;;;;5031371;28;20756;-77
2022/10/09 01:22:29;;;;;;;4.50;2.60;;;;;;;;;;5031432;28;20210;-77
2022/10/09 01:25:05;;;;;;;5.30;3.10;;;;;;;;;;5031570;28;20206;-77
2022/10/09 01:27:32;;;;;;;3.80;3.20;;;;;;;;;;5031425;28;20229;-77
2022/10/09 01:30:11;;;;;;;3.33;2.67;;;;;;;;;;5032696;28;20194;-77
2022/10/09 01:32:39;;;;;;;5.60;3.00;;;;;;;;;;5031570;28;20172;-77
2022/10/09 01:35:06;;;;;;;6.43;2.80;;;;;;;;;;5031416;28;20173;-77
2022/10/09 01:37:34;;;;;;;3.57;2.80;;;;;;;;;;5031318;28;20185;-77
2022/10/09 01:40:01;;;;;;;4.23;2.77;;;;;;;;;;5032462;28;20200;-77
2022/10/09 01:42:28;;;;;;;3.60;2.90;;;;;;;;;;5031127;28;20179;-77
2022/10/09 01:44:54;;;;;;;3.77;2.50;;;;;;;;;;5031210;28;20551;-77
2022/10/09 01:47:21;;;;;;;5.23;2.80;;;;;;;;;;5031030;28;20548;-77
2022/10/09 01:49:52;;;;;;;5.10;2.50;;;;;;;;;;5014902;28;20246;-77
2022/10/09 01:52:22;;;;;;;4.47;2.90;;;;;;;;;;5030974;28;20543;-77
2022/10/09 01:55:06;;;;;;;6.33;2.57;;;;;;;;;;5032434;28;20262;-77
2022/10/09 01:57:36;;;;;;;2.70;2.50;;;;;;;;;;5031295;28;20176;-77
2022/10/09 02:00:05;;;;;;;4.83;2.53;;;;;;;;;;5031056;28;20198;-78
2022/10/09 02:02:31;;;;;;;2.43;2.23;;;;;;;;;;5030816;28;20384;-77
2022/10/09 02:04:58;;;;;;;2.70;2.20;;;;;;;;;;5014474;28;20203;-77
2022/10/09 02:07:24;;;;;;;3.77;2.50;;;;;;;;;;5030954;28;20175;-77
2022/10/09 02:09:50;;;;;;;2.90;2.20;;;;;;;;;;5014829;28;20598;-77
2022/10/09 02:12:18;;;;;;;2.47;2.10;;;;;;;;;;5014305;28;20265;-77
2022/10/09 02:14:44;;;;;;;3.37;2.20;;;;;;;;;;5032097;28;20175;-77
2022/10/09 02:17:12;;;;;;;5.97;2.70;;;;;;;;;;5014659;28;20241;-77
2022/10/09 02:19:42;;;;;;;2.70;1.90;;;;;;;;;;5030711;28;20178;-77
2022/10/09 02:22:17;;;;;;;2.60;2.10;;;;;;;;;;5030642;28;20216;-77
2022/10/09 02:24:43;;;;;;;5.73;2.10;;;;;;;;;;5016700;28;20282;-77
2022/10/09 02:27:10;;;;;;;4.20;2.10;;;;;;;;;;5036177;28;20191;-77
2022/10/09 02:29:38;;;;;;;3.43;2.17;;;;;;;;;;5034881;28;20212;-77
2022/10/09 02:32:04;;;;;;;2.57;2.07;;;;;;;;;;5034528;28;20181;-77
2022/10/09 02:34:30;;;;;;;3.80;2.00;;;;;;;;;;5035032;28;20180;-77
2022/10/09 02:36:56;;;;;;;4.83;2.00;;;;;;;;;;5018386;28;20214;-77
2022/10/09 02:39:22;;;;;;;3.97;2.10;;;;;;;;;;5018317;28;20182;-77
2022/10/09 02:41:48;;;;;;;2.00;1.80;;;;;;;;;;5034531;28;20189;-77
2022/10/09 02:44:14;;;;;;;2.70;1.87;;;;;;;;;;5018171;28;20551;-77
2022/10/09 02:46:40;;;;;;;2.67;1.80;;;;;;;;;;5034466;28;20183;-77
2022/10/09 02:49:06;;;;;;;2.67;1.90;;;;;;;;;;5018269;28;20630;-77
2022/10/09 02:51:32;;;;;;;4.40;2.60;;;;;;;;;;5034167;28;20200;-77
2022/10/09 02:53:58;;;;;;;2.47;1.90;;;;;;;;;;5034293;28;20549;-77
2022/10/09 02:56:25;;;;;;;3.30;2.33;;;;;;;;;;5034291;28;20663;-77
2022/10/09 02:58:51;;;;;;;2.33;1.90;;;;;;;;;;5034352;28;20659;-77
2022/10/09 03:01:17;;;;;;;3.70;2.00;;;;;;;;;;5017517;28;20704;-77
2022/10/09 03:03:43;;;;;;;2.37;1.50;;;;;;;;;;5034267;28;20290;-77
2022/10/09 03:06:13;;;;;;;2.00;1.50;;;;;;;;;;5034127;28;20664;-77
2022/10/09 03:08:44;;;;;;;3.93;1.70;;;;;;;;;;5033952;28;20651;-77
2022/10/09 03:11:10;;;;;;;3.97;1.80;;;;;;;;;;5017495;28;20290;-77
2022/10/09 03:13:38;;;;;;;2.67;1.73;;;;;;;;;;5033950;28;20174;-77
2022/10/09 03:16:05;;;;;;;5.90;1.90;;;;;;;;;;5017858;28;20183;-77
2022/10/09 03:18:31;;;;;;;2.67;1.80;;;;;;;;;;5034261;28;20253;-77
2022/10/09 03:20:57;;;;;;;3.60;2.27;;;;;;;;;;5034971;28;20242;-77
2022/10/09 03:23:24;;;;;;;3.87;2.10;;;;;;;;;;5033689;28;20179;-77
2022/10/09 03:26:00;;;;;;;3.30;2.70;;;;;;;;;;5033858;28;20233;-77
2022/10/09 03:28:26;;;;;;;3.40;2.70;;;;;;;;;;5017642;28;20219;-77
2022/10/09 03:30:52;;;;;;;13.00;3.37;;;;;;;;;;5017315;28;20204;-77
2022/10/09 03:33:19;;;;;;;4.63;3.27;;;;;;;;;;5017133;28;20174;-77
2022/10/09 03:35:45;;;;;;;8.07;3.30;;;;;;;;;;5034286;28;20654;-77
2022/10/09 03:38:11;;;;;;;7.83;3.30;;;;;;;;;;5017298;28;20183;-77
2022/10/09 03:40:37;;;;;;;7.30;2.97;;;;;;;;;;5017074;28;20204;-77
2022/10/09 03:43:03;;;;;;;7.37;3.17;;;;;;;;;;5017204;28;20184;-77
2022/10/09 03:45:29;;;;;;;6.37;3.00;;;;;;;;;;5017260;28;20230;-77
2022/10/09 03:47:55;;;;;;;3.87;2.93;;;;;;;;;;5033451;28;20210;-77
2022/10/09 03:50:21;;;;;;;4.00;3.03;;;;;;;;;;5017017;28;20697;-76
2022/10/09 03:52:47;;;;;;;3.70;2.70;;;;;;;;;;5033232;28;20170;-76
2022/10/09 03:55:13;;;;;;;7.20;3.10;;;;;;;;;;5033297;28;20266;-76
2022/10/09 03:57:39;;;;;;;5.70;2.80;;;;;;;;;;5034403;28;20225;-76
2022/10/09 04:00:06;;;;;;;5.30;2.87;;;;;;;;;;5016790;28;20234;-76
2022/10/09 04:02:32;;;;;;;7.70;3.00;;;;;;;;;;5033104;28;20180;-76
2022/10/09 04:04:58;;;;;;;4.13;3.00;;;;;;;;;;5034652;28;20258;-76
2022/10/09 04:07:24;;;;;;;6.27;2.70;;;;;;;;;;5016704;28;20187;-76
2022/10/09 04:09:50;;;;;;;9.17;2.73;;;;;;;;;;5032893;28;20193;-76
2022/10/09 04:12:17;;;;;;;9.00;2.90;;;;;;;;;;5032807;28;20174;-76
2022/10/09 04:14:43;;;;;;;13.30;4.57;;;;;;;;;;5033062;28;20178;-76
2022/10/09 04:17:09;;;;;;;5.13;3.20;;;;;;;;;;5032875;28;20182;-76
2022/10/09 04:19:35;;;;;;;5.67;3.00;;;;;;;;;;5032918;28;20186;-77
2022/10/09 04:22:01;;;;;;;8.03;3.30;;;;;;;;;;5032714;28;20204;-76
2022/10/09 04:24:27;;;;;;;4.03;2.90;;;;;;;;;;5016494;28;20194;-76
2022/10/09 04:26:53;;;;;;;5.77;3.17;;;;;;;;;;5033995;28;20177;-76
2022/10/09 04:29:19;;;;;;;8.30;2.90;;;;;;;;;;5032768;28;20214;-76
2022/10/09 04:31:45;;;;;;;5.43;3.30;;;;;;;;;;5016248;28;20229;-76
2022/10/09 04:34:11;;;;;;;6.20;2.70;;;;;;;;;;5032871;28;20185;-76
2022/10/09 04:36:37;;;;;;;12.30;3.03;;;;;;;;;;5032489;28;20171;-76
2022/10/09 04:39:03;;;;;;;8.50;3.03;;;;;;;;;;5033597;28;20179;-76
2022/10/09 04:41:29;;;;;;;10.43;2.83;;;;;;;;;;5032471;28;20232;-76
2022/10/09 04:43:56;;;;;;;6.00;2.80;;;;;;;;;;5015961;28;20267;-76
2022/10/09 04:46:22;;;;;;;3.60;2.80;;;;;;;;;;5032483;28;20186;-76
2022/10/09 04:48:48;;;;;;;4.27;3.30;;;;;;;;;;5031301;28;20202;-76
2022/10/09 04:51:15;;;;;;;8.00;2.90;;;;;;;;;;5032103;28;20199;-76
2022/10/09 04:53:41;;;;;;;2.87;2.43;;;;;;;;;;5032195;28;20184;-76
2022/10/09 04:56:09;;;;;;;3.10;2.50;;;;;;;;;;5032303;28;20180;-76
2022/10/09 04:58:36;;;;;;;2.80;2.30;;;;;;;;;;5032081;28;20270;-76
2022/10/09 05:01:06;;;;;;;2.47;2.20;;;;;;;;;;5031938;28;20199;-76
2022/10/09 05:03:32;;;;;;;2.07;1.87;;;;;;;;;;5031800;28;20193;-76
2022/10/09 05:06:02;;;;;;;2.00;1.80;;;;;;;;;;5031922;28;20178;-76
2022/10/09 05:08:29;;;;;;;2.03;1.90;;;;;;;;;;5015403;28;20238;-75
2022/10/09 05:10:59;;;;;;;2.10;1.80;;;;;;;;;;5033229;28;20211;-76
2022/10/09 05:13:25;;;;;;;2.10;1.83;;;;;;;;;;5033033;28;20228;-76
2022/10/09 05:15:51;;;;;;;2.27;1.80;;;;;;;;;;5015358;28;20182;-81
2022/10/09 05:18:17;;;;;;;2.80;2.00;;;;;;;;;;5031886;28;20246;-76
2022/10/09 05:20:43;;;;;;;17.37;9.67;;;;;;;;;;5015198;28;20225;-76
2022/10/09 05:23:09;;;;;;;6.97;4.30;;;;;;;;;;5015439;28;20214;-76
2022/10/09 05:25:35;;;;;;;3.90;2.90;;;;;;;;;;5031667;28;20638;-76
2022/10/09 05:28:01;;;;;;;6.73;3.03;;;;;;;;;;5015384;28;20273;-76
2022/10/09 05:30:27;;;;;;;3.00;2.23;;;;;;;;;;5015332;28;20201;-75
2022/10/09 05:32:53;;;;;;;7.60;3.53;;;;;;;;;;5031324;28;20181;-76
2022/10/09 05:35:19;;;;;;;9.37;3.40;;;;;;;;;;5014952;28;20285;-76
2022/10/09 05:37:45;;;;;;;8.23;2.83;;;;;;;;;;5015335;28;20254;-76
2022/10/09 05:40:11;;;;;;;7.03;2.60;;;;;;;;;;5014896;28;20202;-76
2022/10/09 05:42:37;;;;;;;5.13;2.70;;;;;;;;;;5031595;28;20707;-77
2022/10/09 05:45:03;;;;;;;17.37;3.30;;;;;;;;;;5031487;28;20183;-78
2022/10/09 05:47:30;;;;;;;12.57;3.20;;;;;;;;;;5031152;28;20182;-78
2022/10/09 05:49:56;;;;;;;7.50;2.90;;;;;;;;;;5014981;28;20586;-78
2022/10/09 05:52:22;;;;;;;10.43;2.80;;;;;;;;;;5014854;28;20185;-78
2022/10/09 05:54:49;;;;;;;16.00;3.40;;;;;;;;;;5014972;28;20188;-78
2022/10/09 05:57:15;;;;;;;22.47;4.40;;;;;;;;;;5031437;28;20183;-79
2022/10/09 05:59:41;;;;;;;16.30;3.40;;;;;;;;;;5030612;28;20201;-78
2022/10/09 06:02:08;;;;;;;32.97;4.20;;;;;;;;;;5015136;28;20188;-79
2022/10/09 06:04:34;;;;;;;18.03;3.70;;;;;;;;;;5030864;28;20179;-79
2022/10/09 06:07:00;;;;;;;22.67;3.67;;;;;;;;;;5014962;28;20527;-79
2022/10/09 06:09:27;;;;;;;14.40;3.53;;;;;;;;;;5014676;28;20315;-78
2022/10/09 06:11:54;;;;;;;5.67;2.90;;;;;;;;;;5014578;28;20533;-78
2022/10/09 06:14:20;;;;;;;9.87;2.20;;;;;;;;;;5031083;28;20197;-79
2022/10/09 06:16:47;;;;;;;10.40;2.63;;;;;;;;;;5030926;28;20190;-78
2022/10/09 06:19:15;;;;;;;4.93;2.37;;;;;;;;;;5031107;28;20183;-78
2022/10/09 06:21:41;;;;;;;11.20;2.40;;;;;;;;;;5083579;22;20237;-76
2022/10/09 06:24:07;;;;;;;3.47;1.90;;;;;;;;;;5034256;28;20182;-76
2022/10/09 06:26:33;;;;;;;6.87;2.40;;;;;;;;;;5050911;28;20171;-76
2022/10/09 06:29:00;;;;;;;3.13;2.03;;;;;;;;;;5034280;28;20206;-76
2022/10/09 06:31:28;;;;;;;6.07;2.20;;;;;;;;;;5051593;28;20183;-76
2022/10/09 06:33:54;;;;;;;7.33;2.47;;;;;;;;;;5051831;28;20182;-76
2022/10/09 06:36:25;;;;;;;11.03;2.80;;;;;;;;;;5050567;28;20170;-76
2022/10/09 06:38:51;;;;;;;8.20;3.33;;;;;;;;;;5050713;28;20212;-76
2022/10/09 06:41:18;;;;;;;8.90;2.70;;;;;;;;;;5034085;28;20197;-76
2022/10/09 06:43:48;;;;;;;8.27;2.77;;;;;;;;;;5050445;28;20187;-76
2022/10/09 06:46:14;;;;;;;4.40;3.00;;;;;;;;;;5050481;28;20208;-76
2022/10/09 06:48:40;;;;;;;3.90;3.30;;;;;;;;;;5034205;28;20242;-76
2022/10/09 06:51:17;;;;;;;3.90;3.30;;;;;;;;;;5033947;28;20204;-76
2022/10/09 06:53:45;;;;;;;3.50;3.20;;;;;;;;;;5034002;28;20184;-76
2022/10/09 06:56:11;;;;;;;3.70;2.70;;;;;;;;;;5052015;28;20201;-76
2022/10/09 06:58:38;;;;;;;7.87;3.00;;;;;;;;;;5050255;28;20177;-76
2022/10/09 07:01:05;;;;;;;3.83;2.90;;;;;;;;;;5051432;28;20194;-76
2022/10/09 07:03:32;;;;;;;11.40;4.87;;;;;;;;;;5050073;28;20179;-76
2022/10/09 07:06:08;;;;;;;4.03;2.73;;;;;;;;;;5051636;28;20179;-76
2022/10/09 07:08:34;;;;;;;3.00;2.70;;;;;;;;;;5050351;28;20205;-76
2022/10/09 07:11:06;;;;;;;3.17;2.87;;;;;;;;;;5051012;28;20186;-76
2022/10/09 07:13:32;;;;;;;2.77;2.30;;;;;;;;;;5054204;28;20208;-76
2022/10/09 07:15:58;;;;;;;4.43;2.73;;;;;;;;;;5053745;28;20201;-76
2022/10/09 07:18:24;;;;;;;8.60;3.10;;;;;;;;;;5037552;28;20606;-76
2022/10/09 07:20:50;;;;;;;13.43;5.83;;;;;;;;;;5037473;28;20213;-76
2022/10/09 07:23:16;;;;;;;19.40;10.67;;;;;;;;;;5054043;28;20179;-76
2022/10/09 07:25:42;;;;;;;4.50;4.07;;;;;;;;;;5037312;28;20187;-76
2022/10/09 07:28:08;;;;;;;4.80;3.53;;;;;;;;;;5037408;28;20214;-76
2022/10/09 07:30:37;;;;;;;7.27;4.20;;;;;;;;;;5053575;28;20198;-76
2022/10/09 07:33:03;;;;;;;3.47;3.17;;;;;;;;;;5053499;28;20224;-76
2022/10/09 07:35:29;;;;;;;5.43;3.23;;;;;;;;;;5053582;28;20174;-76
2022/10/09 07:37:55;;;;;;;9.07;3.10;;;;;;;;;;5037108;28;20238;-76
2022/10/09 07:40:21;;;;;;;3.67;3.00;;;;;;;;;;5036749;28;20198;-76
2022/10/09 07:42:47;;;;;;;4.77;2.80;;;;;;;;;;5053378;28;20205;-76
2022/10/09 07:45:13;;;;;;;4.03;2.63;;;;;;;;;;5036877;28;20215;-76
2022/10/09 07:47:39;;;;;;;2.97;2.67;;;;;;;;;;5036714;28;20183;-76
2022/10/09 07:50:05;;;;;;;3.80;2.97;;;;;;;;;;5036826;28;20199;-76
2022/10/09 07:52:31;;;;;;;3.90;3.07;;;;;;;;;;5036618;28;20201;-76
2022/10/09 07:54:57;;;;;;;3.80;3.50;;;;;;;;;;5036679;28;20225;-76
2022/10/09 07:57:23;;;;;;;10.80;3.57;;;;;;;;;;5053183;28;20582;-76
2022/10/09 07:59:49;;;;;;;11.80;5.07;;;;;;;;;;5036526;28;20214;-76
2022/10/09 08:02:15;;;;;;;8.90;4.10;;;;;;;;;;5052944;28;20184;-76
2022/10/09 08:04:41;;;;;;;6.40;3.00;;;;;;;;;;5036580;28;20241;-76
2022/10/09 08:07:07;;;;;;;10.83;3.47;;;;;;;;;;5036502;28;20211;-76
2022/10/09 08:09:33;;;;;;;10.77;3.17;;;;;;;;;;5036334;28;20210;-76
2022/10/09 08:11:59;;;;;;;8.10;3.43;;;;;;;;;;5036223;28;20211;-76
2022/10/09 08:14:25;;;;;;;4.43;2.97;;;;;;;;;;5036517;28;20180;-77
2022/10/09 08:16:54;;;;;;;7.97;3.80;;;;;;;;;;5052604;28;20174;-76
2022/10/09 08:19:20;;;;;;;8.90;4.70;;;;;;;;;;5036419;28;20234;-76
2022/10/09 08:21:46;;;;;;;6.87;4.37;;;;;;;;;;5035582;28;20213;-76
2022/10/09 08:24:12;;;;;;;5.93;3.90;;;;;;;;;;5052655;28;20209;-77
2022/10/09 08:26:38;;;;;;;8.23;4.13;;;;;;;;;;5036141;28;20190;-77
2022/10/09 08:29:07;;;;;;;6.97;4.40;;;;;;;;;;5052629;28;20708;-77
2022/10/09 08:31:33;;;;;;;5.83;4.37;;;;;;;;;;5053447;28;20204;-77
2022/10/09 08:34:00;;;;;;;5.63;4.10;;;;;;;;;;5053766;28;20180;-77
2022/10/09 08:36:26;;;;;;;3.50;3.20;;;;;;;;;;5052427;28;20177;-77
2022/10/09 08:38:52;;;;;;;3.87;2.93;;;;;;;;;;5035935;28;20239;-77
2022/10/09 08:41:37;;;;;;;3.40;2.80;;;;;;;;;;5035779;28;20204;-77
2022/10/09 08:44:05;;;;;;;3.40;3.03;;;;;;;;;;5052499;28;20242;-77
2022/10/09 08:46:43;;;;;;;3.67;3.17;;;;;;;;;;5052205;28;20667;-77
2022/10/09 08:49:14;;;;;;;3.50;2.83;;;;;;;;;;5052069;28;20205;-77
2022/10/09 08:51:40;;;;;;;4.40;2.80;;;;;;;;;;5052158;28;20225;-77
2022/10/09 08:54:18;;;;;;;4.33;2.63;;;;;;;;;;5052458;28;20170;-77
2022/10/09 08:56:45;;;;;;;2.90;2.60;;;;;;;;;;5052442;28;20162;-77
2022/10/09 08:59:12;;;;;;;3.50;3.00;;;;;;;;;;5052055;28;20184;-77
2022/10/09 09:01:47;;;;;;;4.00;3.00;;;;;;;;;;5051659;28;20202;-77
2022/10/09 09:04:32;;;;;;;3.57;2.90;;;;;;;;;;5052150;28;20197;-77
2022/10/09 09:07:01;;;;;;;2.80;2.60;;;;;;;;;;5052017;28;20184;-77
2022/10/09 09:09:38;;;;;;;3.43;3.10;;;;;;;;;;5051825;28;20299;-77
2022/10/09 09:12:09;;;;;;;4.67;3.33;;;;;;;;;;5051554;28;20192;-77
2022/10/09 09:14:54;;;;;;;5.00;3.00;;;;;;;;;;5051830;28;20209;-77
2022/10/09 09:17:44;;;;;;;4.37;3.17;;;;;;;;;;5051486;28;20555;-77
2022/10/09 09:20:27;;;;;;;3.50;3.20;;;;;;;;;;5048510;28;20225;-77
2022/10/09 09:22:55;;;;;;;4.27;3.37;;;;;;;;;;5051595;28;20230;-77
2022/10/09 09:25:21;;;;;;;4.07;3.40;;;;;;;;;;5051593;28;20212;-77
2022/10/09 09:27:47;;;;;;;4.30;3.30;;;;;;;;;;5051397;28;20217;-77
2022/10/09 09:30:16;;;;;;;4.50;3.30;;;;;;;;;;5052646;28;20554;-77
2022/10/09 09:32:55;;;;;;;4.10;3.10;;;;;;;;;;5051160;28;20178;-77
2022/10/09 09:35:24;;;;;;;5.00;3.23;;;;;;;;;;5050848;28;20265;-77
2022/10/09 09:37:50;;;;;;;3.87;3.30;;;;;;;;;;5051360;28;20173;-77
2022/10/09 09:40:18;;;;;;;4.73;3.20;;;;;;;;;;5051214;28;20201;-77
2022/10/09 09:42:44;;;;;;;3.40;3.00;;;;;;;;;;5051012;28;20178;-77
2022/10/09 09:45:19;;;;;;;5.57;3.60;;;;;;;;;;5034606;28;20226;-77
2022/10/09 09:47:49;;;;;;;5.53;3.90;;;;;;;;;;5051286;28;20176;-77
2022/10/09 09:50:15;;;;;;;4.73;3.30;;;;;;;;;;5051200;28;20202;-77
2022/10/09 09:52:43;;;;;;;4.30;3.03;;;;;;;;;;5051082;28;20181;-77
2022/10/09 09:55:23;;;;;;;4.20;3.00;;;;;;;;;;5051149;28;20165;-77
2022/10/09 09:57:49;;;;;;;3.43;2.80;;;;;;;;;;5052774;28;20183;-77
2022/10/09 10:00:22;;;;;;;2.97;2.37;;;;;;;;;;5034685;28;20198;-77
2022/10/09 10:02:49;;;;;;;4.87;2.47;;;;;;;;;;5050780;28;20184;-77
2022/10/09 10:05:17;;;;;;;3.93;2.80;;;;;;;;;;5034560;28;20706;-77
2022/10/09 10:07:43;;;;;;;3.53;2.73;;;;;;;;;;5034410;28;20276;-77
2022/10/09 10:10:09;;;;;;;5.70;4.23;;;;;;;;;;5050780;28;20193;-77
2022/10/09 10:12:40;;;;;;;4.80;3.50;;;;;;;;;;5051962;28;20184;-77
2022/10/09 10:15:06;;;;;;;3.50;2.93;;;;;;;;;;5050987;28;20181;-77
2022/10/09 10:17:34;;;;;;;3.27;2.70;;;;;;;;;;5034134;28;20174;-77
2022/10/09 10:20:05;;;;;;;3.53;2.07;;;;;;;;;;5034413;28;20228;-77
2022/10/09 10:22:31;;;;;;;3.10;1.80;;;;;;;;;;5050796;28;20178;-77
2022/10/09 10:24:57;;;;;;;4.80;1.80;;;;;;;;;;5050960;28;20247;-77
2022/10/09 10:27:38;;;;;;;3.57;1.60;;;;;;;;;;5034530;28;20193;-77
2022/10/09 10:30:05;;;;;;;2.07;1.40;;;;;;;;;;5050708;28;20208;-77
2022/10/09 10:32:40;;;;;;;3.27;1.40;;;;;;;;;;5051743;28;20173;-77
2022/10/09 10:35:13;;;;;;;4.03;1.30;;;;;;;;;;5050691;28;20541;-77
2022/10/09 10:37:45;;;;;;;3.23;1.23;;;;;;;;;;5050560;28;20640;-77
2022/10/09 10:40:31;;;;;;;3.17;1.20;;;;;;;;;;5050539;28;20223;-77
2022/10/09 10:43:09;;;;;;;2.13;1.20;;;;;;;;;;5050433;28;20612;-77
2022/10/09 10:45:35;;;;;;;2.10;1.27;;;;;;;;;;5052402;28;20188;-77
2022/10/09 10:48:02;;;;;;;2.77;1.40;;;;;;;;;;5054686;28;20205;-77
2022/10/09 10:50:36;;;;;;;1.50;1.07;;;;;;;;;;5054487;28;20194;-77
2022/10/09 10:53:18;;;;;;;1.83;1.07;;;;;;;;;;5055503;28;20177;-77
2022/10/09 10:55:44;;;;;;;2.07;1.33;;;;;;;;;;5054560;28;20180;-77
2022/10/09 10:58:23;;;;;;;2.27;1.10;;;;;;;;;;5054213;28;20271;-77
2022/10/09 11:00:58;;;;;;;1.97;0.93;;;;;;;;;;5054268;28;20198;-77
2022/10/09 11:03:34;;;;;;;2.53;1.07;;;;;;;;;;5054341;28;20181;-77
2022/10/09 11:06:03;;;;;;;2.57;1.40;;;;;;;;;;5055585;28;20181;-77
2022/10/09 11:08:32;;;;;;;1.27;1.00;;;;;;;;;;5054044;28;20288;-77
2022/10/09 11:10:58;;;;;;;2.10;1.00;;;;;;;;;;5054157;28;20246;-77
2022/10/09 11:13:28;;;;;;;2.13;1.07;;;;;;;;;;5053813;28;20268;-78
2022/10/09 11:16:06;;;;;;;2.13;0.93;;;;;;;;;;5053810;28;20176;-77
2022/10/09 11:18:43;;;;;;;2.47;1.00;;;;;;;;;;5054106;28;20199;-76
2022/10/09 11:21:12;;;;;;;1.97;1.00;;;;;;;;;;5053686;28;20715;-76
2022/10/09 11:23:47;;;;;;;1.30;1.03;;;;;;;;;;5055278;28;20170;-76
2022/10/09 11:26:19;;;;;;;1.07;0.90;;;;;;;;;;5053953;28;20181;-75
2022/10/09 11:28:50;;;;;;;2.30;0.93;;;;;;;;;;5053607;28;20212;-75
2022/10/09 11:31:18;;;;;;;2.37;1.17;;;;;;;;;;5053449;28;20193;-75
2022/10/09 11:33:47;;;;;;;1.87;0.90;;;;;;;;;;5053534;28;20186;-75
2022/10/09 11:36:32;;;;;;;1.20;0.80;;;;;;;;;;5053961;28;20182;-75
2022/10/09 11:38:59;;;;;;;1.13;0.90;;;;;;;;;;5053657;28;20178;-75
2022/10/09 11:41:26;;;;;;;2.60;0.97;;;;;;;;;;5053381;28;20225;-76
2022/10/09 11:43:52;;;;;;;3.57;1.00;;;;;;;;;;5053402;28;20711;-75
2022/10/09 11:46:27;;;;;;;1.97;1.10;;;;;;;;;;5053518;28;20284;-77
2022/10/09 11:48:59;;;;;;;1.37;0.87;;;;;;;;;;5053506;28;20292;-77
2022/10/09 11:51:28;;;;;;;1.50;0.93;;;;;;;;;;5053389;28;20232;-77
2022/10/09 11:53:54;;;;;;;1.37;0.80;;;;;;;;;;5053297;28;20181;-77
2022/10/09 11:56:23;;;;;;;1.83;0.90;;;;;;;;;;5052956;28;20166;-77
2022/10/09 11:59:00;;;;;;;0.87;0.80;;;;;;;;;;5053396;28;20182;-77
2022/10/09 12:01:32;;;;;;;2.07;0.80;;;;;;;;;;5052902;28;20231;-77
2022/10/09 12:04:09;;;;;;;2.53;0.80;;;;;;;;;;5053254;28;20192;-77
2022/10/09 12:06:49;;;;;;;1.47;1.00;;;;;;;;;;5054439;28;20162;-77
2022/10/09 12:09:19;;;;;;;1.33;0.83;;;;;;;;;;5036720;28;20209;-77
2022/10/09 12:11:53;;;;;;;1.70;0.93;;;;;;;;;;5052629;28;20224;-77
2022/10/09 12:14:24;;;;;;;2.07;0.90;;;;;;;;;;5052940;28;20178;-77
2022/10/09 12:16:50;;;;;;;2.00;1.00;;;;;;;;;;5052799;28;20173;-77
2022/10/09 12:19:24;;;;;;;1.50;0.80;;;;;;;;;;5036406;28;20215;-77
2022/10/09 12:21:53;;;;;;;2.10;1.00;;;;;;;;;;5044203;22;20309;-77
2022/10/09 12:24:21;;;;;;;1.57;0.90;;;;;;;;;;5016356;28;20209;-77
2022/10/09 12:26:48;;;;;;;1.33;0.90;;;;;;;;;;5016335;28;20240;-77
2022/10/09 12:29:18;;;;;;;1.07;0.80;;;;;;;;;;5032639;28;20308;-77
2022/10/09 12:31:44;;;;;;;1.47;0.77;;;;;;;;;;5032470;28;20592;-77
2022/10/09 12:34:17;;;;;;;1.67;0.93;;;;;;;;;;5032514;28;20178;-78
2022/10/09 12:36:43;;;;;;;1.30;0.80;;;;;;;;;;5032763;28;20587;-77
2022/10/09 12:39:19;;;;;;;1.13;1.00;;;;;;;;;;5016334;28;20184;-77
2022/10/09 12:41:46;;;;;;;2.00;1.00;;;;;;;;;;5032281;28;20264;-77
2022/10/09 12:44:25;;;;;;;3.17;1.00;;;;;;;;;;5016317;28;20209;-77
2022/10/09 12:46:51;;;;;;;1.90;0.80;;;;;;;;;;5033646;28;20253;-77
2022/10/09 12:49:19;;;;;;;1.20;0.90;;;;;;;;;;5033533;28;20201;-77
2022/10/09 12:51:53;;;;;;;1.17;0.80;;;;;;;;;;5032427;28;20198;-77
2022/10/09 12:54:19;;;;;;;2.87;0.90;;;;;;;;;;5032369;28;20174;-77
2022/10/09 12:56:46;;;;;;;0.80;0.73;;;;;;;;;;5015943;28;20621;-77
2022/10/09 12:59:12;;;;;;;1.20;0.70;;;;;;;;;;5015640;28;20405;-77
2022/10/09 13:01:39;;;;;;;1.50;0.87;;;;;;;;;;5015509;28;20209;-77
2022/10/09 13:04:08;;;;;;;1.20;0.87;;;;;;;;;;5033517;28;20189;-77
2022/10/09 13:06:37;;;;;;;0.93;0.83;;;;;;;;;;5033313;28;20378;-77
2022/10/09 13:09:05;;;;;;;2.03;1.10;;;;;;;;;;5031086;28;20209;-77
2022/10/09 13:11:37;;;;;;;0.63;0.63;;;;;;;;;;5031483;28;20201;-77
2022/10/09 13:14:04;;;;;;;0.93;0.87;;;;;;;;;;5015892;28;20178;-77
2022/10/09 13:16:40;;;;;;;1.30;0.75;;;;;;;;;;5015305;28;20186;-77
2022/10/09 13:19:19;;;;;;;1.23;0.80;;;;;;;;;;5015333;28;20630;-77
2022/10/09 13:21:45;;;;;;;2.60;0.65;;;;;;;;;;5031475;28;20263;-77
2022/10/09 13:24:12;;;;;;;3.50;1.00;;;;;;;;;;5015264;28;20186;-77
2022/10/09 13:26:40;;;;;;;1.70;0.88;;;;;;;;;;5033032;28;20170;-78
2022/10/09 13:29:07;;;;;;;2.25;0.88;;;;;;;;;;5031577;28;20206;-77
2022/10/09 13:31:35;;;;;;;1.65;0.82;;;;;;;;;;5031395;28;20186;-77
2022/10/09 13:34:09;;;;;;;0.90;0.73;;;;;;;;;;5031451;28;20645;-77
2022/10/09 13:36:35;;;;;;;2.10;0.90;;;;;;;;;;5031764;28;20166;-77
2022/10/09 13:39:01;;;;;;;2.00;0.80;;;;;;;;;;5015244;28;20249;-77
2022/10/09 13:41:27;;;;;;;1.42;0.80;;;;;;;;;;5031211;28;20300;-77
2022/10/09 13:43:53;;;;;;;1.15;0.88;;;;;;;;;;5031462;28;20170;-77
2022/10/09 13:46:19;;;;;;;0.75;0.75;;;;;;;;;;5031273;28;20197;-77
2022/10/09 13:48:45;;;;;;;0.70;0.70;;;;;;;;;;5031279;28;20684;-77
2022/10/09 13:51:11;;;;;;;1.45;0.68;;;;;;;;;;5014616;28;20297;-77
2022/10/09 13:53:37;;;;;;;1.35;0.70;;;;;;;;;;5015079;28;20535;-77
2022/10/09 13:56:03;;;;;;;1.48;0.82;;;;;;;;;;5031338;28;20170;-77
2022/10/09 13:58:30;;;;;;;1.02;0.88;;;;;;;;;;5031130;28;20178;-77
2022/10/09 14:00:57;;;;;;;0.95;0.70;;;;;;;;;;5014846;28;20198;-77
2022/10/09 14:03:23;;;;;;;1.50;0.70;;;;;;;;;;5030944;28;20181;-77
2022/10/09 14:05:49;;;;;;;0.85;0.77;;;;;;;;;;5032263;28;20637;-77
2022/10/09 14:08:15;;;;;;;0.60;0.60;;;;;;;;;;5014801;28;20232;-77
2022/10/09 14:10:41;;;;;;;0.80;0.70;;;;;;;;;;5014540;28;20198;-77
2022/10/09 14:13:08;;;;;;;1.83;1.08;;;;;;;;;;5014578;28;20175;-76
2022/10/09 14:15:37;;;;;;;1.02;0.80;;;;;;;;;;5030838;28;20610;-77
2022/10/09 14:18:03;;;;;;;1.88;0.80;;;;;;;;;;5030919;28;20178;-77
2022/10/09 14:20:29;;;;;;;1.20;0.75;;;;;;;;;;5014100;28;20214;-77
2022/10/09 14:22:55;;;;;;;1.63;0.75;;;;;;;;;;5014437;28;20660;-77
2022/10/09 14:25:21;;;;;;;1.38;0.77;;;;;;;;;;5031031;28;20170;-77
2022/10/09 14:27:47;;;;;;;2.88;0.75;;;;;;;;;;5014627;28;20186;-77
2022/10/09 14:30:13;;;;;;;0.82;0.80;;;;;;;;;;5014393;28;20174;-77
2022/10/09 14:32:39;;;;;;;2.30;1.15;;;;;;;;;;5030608;28;20170;-77
2022/10/09 14:35:06;;;;;;;0.88;0.60;;;;;;;;;;5031041;28;20193;-77
2022/10/09 14:37:33;;;;;;;1.90;0.90;;;;;;;;;;5014473;28;20216;-77
2022/10/09 14:39:58;;;;;;;1.48;0.93;;;;;;;;;;5030887;28;20261;-76
2022/10/09 14:42:24;;;;;;;1.00;0.85;;;;;;;;;;5014301;28;20297;-77
2022/10/09 14:44:52;;;;;;;0.82;0.60;;;;;;;;;;5014410;28;20225;-77
2022/10/09 14:47:18;;;;;;;1.15;0.73;;;;;;;;;;5014376;28;20273;-76
2022/10/09 14:49:44;;;;;;;1.17;0.80;;;;;;;;;;5014196;28;20314;-76